createdAt,value
2022-08-19T00:02:56.167Z,12.20
2022-08-19T00:07:55.189Z,12.35
2022-08-19T00:12:54.372Z,9.25
2022-08-19T00:17:54.689Z,9.77
2022-08-19T00:22:53.683Z,10.57
2022-08-19T00:27:52.797Z,9.63
2022-08-19T00:32:51.925Z,10.73
2022-08-19T00:37:52.958Z,8.32
2022-08-19T00:42:54.926Z,10.25
2022-08-19T00:47:53.825Z,7.63
2022-08-19T00:52:55.884Z,10.98
2022-08-19T00:57:58.574Z,12.30
2022-08-19T01:02:58.313Z,15.25
2022-08-19T01:08:01.183Z,9.05
2022-08-19T01:13:49.448Z,12.48
2022-08-19T01:18:49.510Z,10.75
2022-08-19T01:23:50.158Z,10.60
2022-08-19T01:28:51.847Z,9.88
2022-08-19T01:33:51.887Z,11.48
2022-08-19T01:38:52.411Z,9.55
2022-08-19T01:44:13.981Z,12.70
2022-08-19T01:49:11.245Z,9.93
2022-08-19T01:54:13.758Z,12.90
2022-08-19T01:59:26.929Z,13.80
2022-08-19T02:04:28.673Z,15.88
2022-08-19T02:09:28.940Z,11.65
2022-08-19T02:14:28.164Z,10.40
2022-08-19T02:19:27.032Z,14.70
2022-08-19T02:24:26.138Z,13.93
2022-08-19T02:29:26.684Z,17.15
2022-08-19T02:34:26.393Z,13.17
2022-08-19T02:39:25.307Z,10.52
2022-08-19T02:44:31.188Z,10.40
2022-08-19T02:49:34.710Z,12.63
2022-08-19T02:54:33.833Z,9.88
2022-08-19T02:59:32.839Z,10.93
2022-08-19T03:04:33.081Z,13.07
2022-08-19T03:09:32.213Z,13.20
2022-08-19T03:14:33.185Z,17.80
2022-08-19T03:19:33.635Z,15.65
2022-08-19T03:24:32.975Z,15.20
2022-08-19T03:29:43.199Z,15.13
2022-08-19T03:34:44.423Z,15.27
2022-08-19T03:39:44.057Z,19.83
2022-08-19T03:44:45.683Z,13.90
2022-08-19T03:49:46.850Z,16.92
2022-08-19T03:59:45.223Z,14.38
2022-08-19T04:04:46.110Z,15.85
2022-08-19T04:09:45.557Z,15.02
2022-08-19T04:14:44.566Z,13.35
2022-08-19T04:19:44.088Z,12.32
2022-08-19T04:24:45.241Z,18.73
2022-08-19T04:29:44.740Z,14.27
2022-08-19T04:35:03.192Z,17.33
2022-08-19T04:40:30.572Z,15.07
2022-08-19T04:45:43.630Z,11.45
2022-08-19T04:50:45.858Z,17.00
2022-08-19T04:55:46.704Z,15.35
2022-08-19T05:00:46.099Z,17.58
2022-08-19T05:05:46.996Z,15.63
2022-08-19T05:10:53.259Z,22.40
2022-08-19T05:15:57.417Z,23.75
2022-08-19T05:21:14.468Z,15.25
2022-08-19T05:26:15.619Z,17.80
2022-08-19T05:31:14.957Z,19.60
2022-08-19T05:36:15.170Z,24.77
2022-08-19T05:41:24.486Z,20.33
2022-08-19T05:46:27.935Z,20.02
2022-08-19T05:51:29.318Z,19.83
2022-08-19T05:56:31.586Z,18.35
2022-08-19T06:01:31.164Z,21.23
2022-08-19T06:06:30.349Z,18.02
2022-08-19T06:11:38.566Z,18.77
2022-08-19T06:16:39.815Z,18.98
2022-08-19T06:26:42.245Z,20.80
2022-08-19T06:31:45.081Z,30.20
2022-08-19T06:36:47.033Z,24.27
2022-08-19T06:41:52.520Z,11.70
2022-08-19T06:46:53.571Z,15.95
2022-08-19T06:51:54.777Z,16.77
2022-08-19T06:56:56.788Z,12.48
2022-08-19T07:01:58.721Z,14.18
2022-08-19T07:07:20.220Z,19.35
2022-08-19T07:12:22.839Z,15.07
2022-08-19T07:17:22.793Z,11.63
2022-08-19T07:22:28.339Z,14.93
2022-08-19T07:40:14.997Z,14.10
2022-08-19T07:45:20.239Z,8.43
2022-08-19T07:50:25.050Z,11.40
2022-08-19T07:55:42.171Z,10.77
2022-08-19T08:00:46.419Z,13.48
2022-08-19T08:06:03.660Z,12.13
2022-08-19T08:11:03.373Z,14.73
2022-08-19T08:16:10.261Z,11.00
2022-08-19T08:21:16.035Z,11.40
2022-08-19T08:26:21.489Z,11.45
2022-08-19T08:31:27.575Z,10.88
2022-08-19T08:36:28.486Z,11.85
2022-08-19T08:41:34.421Z,10.82
2022-08-19T08:46:41.334Z,10.30
2022-08-19T08:51:47.254Z,8.65
2022-08-19T08:56:52.127Z,11.32
2022-08-19T09:01:55.587Z,8.65
2022-08-19T09:07:17.945Z,8.98
2022-08-19T09:12:37.715Z,11.65
2022-08-19T09:17:44.720Z,21.52
2022-08-19T09:22:51.040Z,10.82
2022-08-19T09:27:55.429Z,9.27
2022-08-19T09:33:04.983Z,17.55
2022-08-19T09:38:04.765Z,14.45
2022-08-19T09:43:09.937Z,8.10
2022-08-19T09:48:18.905Z,7.63
2022-08-19T09:53:18.369Z,9.38
2022-08-19T09:58:17.246Z,10.65
2022-08-19T10:03:17.999Z,10.25
2022-08-19T10:08:19.118Z,9.38
2022-08-19T10:13:26.596Z,7.47
2022-08-19T10:18:27.721Z,10.82
2022-08-19T10:23:33.776Z,10.20
2022-08-19T10:28:38.994Z,14.38
2022-08-19T10:33:54.136Z,14.27
2022-08-19T10:38:56.999Z,11.10
2022-08-19T10:44:04.344Z,9.90
2022-08-19T10:49:07.044Z,12.32
2022-08-19T10:54:12.572Z,8.07
2022-08-19T10:59:13.436Z,9.15
2022-08-19T11:04:14.780Z,9.77
2022-08-19T11:09:13.912Z,9.73
2022-08-19T11:14:15.953Z,6.38
2022-08-19T11:19:20.145Z,9.73
2022-08-19T11:24:21.277Z,8.77
2022-08-19T11:29:22.851Z,9.90
2022-08-19T11:34:26.467Z,9.98
2022-08-19T11:39:29.366Z,11.00
2022-08-19T11:44:32.143Z,10.10
2022-08-19T11:49:37.303Z,8.98
2022-08-19T11:54:45.559Z,8.00
2022-08-19T11:59:44.771Z,8.48
2022-08-19T12:04:45.184Z,8.90
2022-08-19T12:09:44.508Z,9.57
2022-08-19T12:14:47.685Z,8.73
2022-08-19T12:19:48.033Z,10.75
2022-08-19T12:24:47.056Z,10.50
2022-08-19T12:29:45.979Z,6.15
2022-08-19T12:34:45.743Z,7.28
2022-08-19T12:39:46.540Z,10.00
2022-08-19T12:45:09.528Z,8.13
2022-08-19T12:50:10.421Z,12.07
2022-08-19T12:55:12.215Z,10.00
2022-08-19T13:00:14.851Z,8.15
2022-08-19T13:05:16.974Z,8.10
2022-08-19T13:10:20.710Z,11.30
2022-08-19T13:15:23.986Z,11.10
2022-08-19T13:20:25.242Z,8.77
2022-08-19T13:25:27.925Z,7.15
2022-08-19T13:30:44.248Z,8.60
2022-08-19T13:35:45.811Z,6.38
2022-08-19T13:40:47.465Z,8.23
2022-08-19T13:45:46.611Z,12.65
2022-08-19T13:50:48.391Z,9.32
2022-08-19T13:55:48.822Z,11.68
2022-08-19T14:01:00.805Z,7.90
2022-08-19T14:05:59.731Z,8.32
2022-08-19T14:11:08.488Z,11.20
2022-08-19T14:16:12.914Z,16.80
2022-08-19T14:21:18.731Z,8.90
2022-08-19T14:26:22.663Z,8.73
2022-08-19T14:31:28.970Z,7.53
2022-08-19T14:36:30.092Z,9.43
2022-08-19T14:41:31.423Z,10.85
2022-08-19T14:46:31.798Z,14.10
2022-08-19T14:51:30.791Z,8.05
2022-08-19T14:56:33.644Z,10.02
2022-08-19T15:01:32.549Z,8.77
2022-08-19T15:06:32.793Z,6.93
2022-08-19T15:11:35.220Z,8.23
2022-08-19T15:16:34.781Z,8.52
2022-08-19T15:21:34.136Z,9.05
2022-08-19T15:26:34.657Z,9.18
2022-08-19T15:31:38.936Z,11.63
2022-08-19T15:36:38.698Z,9.02
2022-08-19T15:41:41.259Z,11.90
2022-08-19T15:46:43.710Z,8.40
2022-08-19T15:51:44.497Z,12.27
2022-08-19T15:57:01.873Z,6.90
2022-08-19T16:02:18.391Z,10.98
2022-08-19T16:07:23.528Z,10.00
2022-08-19T16:12:30.565Z,8.18
2022-08-19T16:17:29.739Z,17.85
2022-08-19T16:22:31.736Z,13.38
2022-08-19T16:27:32.210Z,8.90
2022-08-19T16:32:33.138Z,8.55
2022-08-19T16:37:33.116Z,10.20
2022-08-19T16:42:36.039Z,11.05
2022-08-19T16:47:35.315Z,9.35
2022-08-19T16:52:35.126Z,10.38
2022-08-19T16:57:36.486Z,12.43
2022-08-19T17:02:37.326Z,12.90
2022-08-19T17:07:36.348Z,8.27
2022-08-19T17:12:39.131Z,10.30
2022-08-19T17:17:38.370Z,17.67
2022-08-19T17:22:37.572Z,15.15
2022-08-19T17:27:38.494Z,19.25
2022-08-19T17:32:37.814Z,21.08
2022-08-19T17:37:38.179Z,18.35
2022-08-19T17:42:40.803Z,15.40
2022-08-19T17:47:40.633Z,20.23
2022-08-19T17:52:40.539Z,14.77
2022-08-19T17:57:46.079Z,20.17
2022-08-19T18:02:47.593Z,14.63
2022-08-19T18:07:52.508Z,23.40
2022-08-19T18:12:55.680Z,18.27
2022-08-19T18:17:58.230Z,12.82
2022-08-19T18:23:00.091Z,11.85
2022-08-19T18:28:20.823Z,20.55
2022-08-19T18:33:21.240Z,12.95
2022-08-19T18:38:40.121Z,13.98
2022-08-19T18:43:58.061Z,15.40
2022-08-19T18:49:06.455Z,11.02
2022-08-19T18:54:05.834Z,12.88
2022-08-19T18:59:06.380Z,11.98
2022-08-19T19:04:07.647Z,8.55
2022-08-19T19:09:07.794Z,12.82
2022-08-19T19:19:30.889Z,13.55
2022-08-19T19:24:33.289Z,11.80
2022-08-19T19:29:37.104Z,13.00
2022-08-19T19:34:38.263Z,11.00
2022-08-19T19:39:45.726Z,9.82
2022-08-19T19:44:49.265Z,13.73
2022-08-19T19:50:13.800Z,12.82
2022-08-19T19:55:15.799Z,10.25
2022-08-19T20:00:19.000Z,13.77
2022-08-19T20:05:21.086Z,12.48
2022-08-19T20:10:20.462Z,12.63
2022-08-19T20:15:21.249Z,10.93
2022-08-19T20:20:20.791Z,11.15
2022-08-19T20:25:22.413Z,12.32
2022-08-19T20:30:23.866Z,10.82
2022-08-19T20:35:25.171Z,10.02
2022-08-19T20:40:24.039Z,9.45
2022-08-19T20:45:32.461Z,8.45
2022-08-19T20:50:34.423Z,9.00
2022-08-19T20:55:34.865Z,12.40
2022-08-19T21:00:35.305Z,9.80
2022-08-19T21:05:34.562Z,13.48
2022-08-19T21:10:34.243Z,10.68
2022-08-19T21:15:35.359Z,6.90
2022-08-19T21:20:34.404Z,10.02
2022-08-19T21:25:33.318Z,9.07
2022-08-19T21:30:32.435Z,9.48
2022-08-19T21:35:33.652Z,18.35
2022-08-19T21:40:32.632Z,15.45
2022-08-19T21:45:31.922Z,15.18
2022-08-19T21:50:33.063Z,9.23
2022-08-19T21:55:32.115Z,10.15
2022-08-19T22:00:32.389Z,11.48
2022-08-19T22:05:34.048Z,11.73
2022-08-19T22:10:35.580Z,10.55
2022-08-19T22:15:34.535Z,12.73
2022-08-19T22:20:35.310Z,9.55
2022-08-19T22:25:40.815Z,11.73
2022-08-19T22:30:41.910Z,13.00
2022-08-19T22:35:44.586Z,10.70
2022-08-19T22:40:47.336Z,11.70
2022-08-19T22:45:47.721Z,9.77
2022-08-19T22:51:03.895Z,9.50
2022-08-19T22:56:02.929Z,10.27
2022-08-19T23:01:02.336Z,10.60
2022-08-19T23:06:03.078Z,12.75
2022-08-19T23:11:02.572Z,13.70
2022-08-19T23:16:01.538Z,12.00
2022-08-19T23:21:03.447Z,11.13
2022-08-19T23:26:02.359Z,13.57
2022-08-19T23:31:00.437Z,12.20
2022-08-19T23:36:01.581Z,11.65
2022-08-19T23:41:05.741Z,15.90
2022-08-19T23:46:10.525Z,13.57
2022-08-19T23:51:12.343Z,11.55
2022-08-19T23:56:13.910Z,12.98
